Time;durP1;ratioP1;P1;durP2;ratioP2;P2;SDS_P1;SDS_P2;PMS_P1;PMS_P2;Temp;Humidity;BMP_temperature;BMP_pressure;BME280_temperature;BME280_humidity;BME280_pressure;Samples;Min_cycle;Max_cycle;Signal;HPM_P1;HPM_P2
2022/05/22 00:01:22;;;;;;;1.43;1.37;;;10.60;99.90;;;;;;497269;239;27839;-71
2022/05/22 00:03:23;;;;;;;1.37;1.33;;;10.60;99.90;;;;;;497243;239;27901;-69
2022/05/22 00:05:24;;;;;;;1.20;1.20;;;10.60;99.90;;;;;;497284;239;28447;-70
2022/05/22 00:07:26;;;;;;;1.50;1.40;;;10.60;99.90;;;;;;497246;239;29207;-69
2022/05/22 00:09:30;;;;;;;1.40;1.30;;;10.60;99.90;;;;;;497285;239;28347;-70
2022/05/22 00:11:28;;;;;;;1.33;1.33;;;10.50;99.90;;;;;;497075;239;27931;-73
2022/05/22 00:13:29;;;;;;;1.67;1.57;;;10.50;99.90;;;;;;497260;239;27938;-70
2022/05/22 00:15:31;;;;;;;1.30;1.30;;;10.40;99.90;;;;;;497200;239;28062;-71
2022/05/22 00:17:32;;;;;;;1.40;1.40;;;10.30;99.90;;;;;;497241;239;27942;-71
2022/05/22 00:19:33;;;;;;;1.50;1.40;;;10.30;99.90;;;;;;497256;239;27475;-70
2022/05/22 00:21:35;;;;;;;1.50;1.40;;;10.30;99.90;;;;;;497234;239;28154;-72
2022/05/22 00:23:36;;;;;;;1.60;1.50;;;10.20;99.90;;;;;;497097;239;27914;-70
2022/05/22 00:25:37;;;;;;;1.20;1.20;;;10.30;99.90;;;;;;497029;239;27837;-71
2022/05/22 00:27:38;;;;;;;1.60;1.50;;;10.20;99.90;;;;;;497020;239;28370;-70
2022/05/22 00:29:39;;;;;;;1.57;1.47;;;10.20;99.90;;;;;;497273;239;28390;-70
2022/05/22 00:31:42;;;;;;;1.53;1.43;;;10.20;99.90;;;;;;497272;239;28416;-70
2022/05/22 00:33:42;;;;;;;1.50;1.40;;;10.10;99.90;;;;;;497216;239;27562;-72
2022/05/22 00:35:43;;;;;;;1.30;1.30;;;10.10;99.90;;;;;;497260;239;27854;-71
2022/05/22 00:37:44;;;;;;;1.50;1.40;;;10.20;99.90;;;;;;497308;239;27961;-70
2022/05/22 00:39:46;;;;;;;1.50;1.40;;;10.20;99.90;;;;;;497271;239;27974;-70
2022/05/22 00:41:47;;;;;;;1.13;1.13;;;10.30;99.90;;;;;;497242;239;27872;-72
2022/05/22 00:43:48;;;;;;;1.70;1.60;;;10.30;99.90;;;;;;497248;239;27914;-70
2022/05/22 00:45:49;;;;;;;1.30;1.30;;;10.20;99.90;;;;;;497249;239;27897;-70
2022/05/22 00:47:51;;;;;;;1.40;1.37;;;10.20;99.90;;;;;;497273;239;28405;-70
2022/05/22 00:49:53;;;;;;;1.30;1.30;;;10.10;99.90;;;;;;497307;239;28373;-70
2022/05/22 00:51:53;;;;;;;1.40;1.30;;;10.10;99.90;;;;;;497242;239;28177;-70
2022/05/22 00:53:54;;;;;;;1.43;1.43;;;10.00;99.90;;;;;;497272;239;28315;-70
2022/05/22 00:55:56;;;;;;;1.47;1.37;;;9.90;99.90;;;;;;497242;239;27802;-71
2022/05/22 00:57:57;;;;;;;1.40;1.30;;;9.90;99.90;;;;;;497249;239;27731;-70
2022/05/22 00:59:58;;;;;;;3.90;1.30;;;9.90;99.90;;;;;;497296;239;27767;-70
2022/05/22 01:01:59;;;;;;;1.50;1.40;;;9.80;99.90;;;;;;497263;239;28041;-73
2022/05/22 01:04:01;;;;;;;1.60;1.50;;;9.90;99.90;;;;;;497250;239;27673;-70
2022/05/22 01:06:02;;;;;;;1.60;1.30;;;10.00;99.90;;;;;;497270;239;28436;-69
2022/05/22 01:08:03;;;;;;;1.30;1.30;;;10.10;99.90;;;;;;497290;239;28525;-73
2022/05/22 01:10:05;;;;;;;1.47;1.37;;;10.10;99.90;;;;;;497269;239;28752;-69
2022/05/22 01:12:06;;;;;;;1.40;1.30;;;10.10;99.90;;;;;;497134;239;28095;-71
2022/05/22 01:14:07;;;;;;;1.43;1.43;;;10.00;99.90;;;;;;497226;239;27715;-70
2022/05/22 01:16:08;;;;;;;2.10;1.30;;;10.00;99.90;;;;;;497229;239;27913;-71
2022/05/22 01:18:10;;;;;;;1.30;1.30;;;9.90;99.90;;;;;;497281;239;27949;-72
2022/05/22 01:20:11;;;;;;;1.37;1.30;;;10.00;99.90;;;;;;497292;239;27936;-70
2022/05/22 01:22:15;;;;;;;1.70;1.60;;;10.00;99.90;;;;;;497263;239;27982;-71
2022/05/22 01:24:16;;;;;;;1.50;1.40;;;10.00;99.90;;;;;;497266;239;28463;-71
2022/05/22 01:26:17;;;;;;;1.30;1.20;;;10.00;99.90;;;;;;497253;239;28321;-70
2022/05/22 01:28:19;;;;;;;1.50;1.40;;;9.90;99.90;;;;;;497291;239;27673;-70
2022/05/22 01:30:20;;;;;;;1.30;1.30;;;9.90;99.90;;;;;;497284;239;28016;-72
2022/05/22 01:32:21;;;;;;;1.60;1.50;;;9.80;99.90;;;;;;497266;239;27698;-70
2022/05/22 01:34:23;;;;;;;1.50;1.40;;;9.70;99.90;;;;;;497264;239;27835;-70
2022/05/22 01:36:24;;;;;;;1.50;1.40;;;9.70;99.90;;;;;;497239;239;27928;-70
2022/05/22 01:38:25;;;;;;;1.40;1.40;;;9.70;99.90;;;;;;497267;239;27899;-70
2022/05/22 01:40:26;;;;;;;1.40;1.40;;;9.70;99.90;;;;;;497272;239;27736;-70
2022/05/22 01:42:28;;;;;;;1.30;1.30;;;9.70;99.90;;;;;;497268;239;28051;-72
2022/05/22 01:44:29;;;;;;;1.80;1.70;;;9.60;99.90;;;;;;497278;239;27916;-70
2022/05/22 01:46:30;;;;;;;1.60;1.50;;;9.60;99.90;;;;;;497266;239;27972;-72
2022/05/22 01:48:32;;;;;;;1.40;1.40;;;9.60;99.90;;;;;;497239;239;27626;-70
2022/05/22 01:50:33;;;;;;;1.70;1.60;;;9.70;99.90;;;;;;497247;239;28450;-70
2022/05/22 01:52:34;;;;;;;1.40;1.30;;;9.70;99.90;;;;;;497240;239;28266;-70
2022/05/22 01:54:35;;;;;;;1.53;1.43;;;9.70;99.90;;;;;;497275;239;28227;-70
2022/05/22 01:56:37;;;;;;;1.40;1.30;;;9.70;99.90;;;;;;497290;239;28438;-74
2022/05/22 01:58:38;;;;;;;1.30;1.30;;;9.70;99.90;;;;;;497264;239;28525;-70
2022/05/22 02:00:39;;;;;;;1.70;1.60;;;9.60;99.90;;;;;;497243;239;28125;-70
2022/05/22 02:02:40;;;;;;;1.40;1.30;;;9.60;99.90;;;;;;497232;239;27755;-70
2022/05/22 02:04:42;;;;;;;1.97;1.30;;;9.60;99.90;;;;;;497258;239;27686;-70
2022/05/22 02:09:02;;;;;;;1.67;1.57;;;9.60;99.90;;;;;;497235;238;28360;-68
2022/05/22 02:11:04;;;;;;;1.70;1.60;;;9.70;99.90;;;;;;497237;239;28504;-71
2022/05/22 02:13:05;;;;;;;1.53;1.43;;;9.70;99.90;;;;;;497275;239;27946;-73
2022/05/22 02:15:06;;;;;;;1.50;1.40;;;9.70;99.90;;;;;;497269;239;27587;-71
2022/05/22 02:17:07;;;;;;;1.43;1.37;;;9.70;99.90;;;;;;497243;239;28079;-70
2022/05/22 02:19:10;;;;;;;1.20;1.20;;;9.80;99.90;;;;;;497254;239;28140;-70
2022/05/22 02:21:10;;;;;;;1.33;1.23;;;9.80;99.90;;;;;;497157;239;27912;-70
2022/05/22 02:23:11;;;;;;;1.70;1.60;;;9.70;99.90;;;;;;497258;239;28019;-70
2022/05/22 02:25:12;;;;;;;1.53;1.43;;;9.70;99.90;;;;;;497254;239;27928;-70
2022/05/22 02:27:14;;;;;;;1.33;1.20;;;9.60;99.90;;;;;;497248;239;28063;-72
2022/05/22 02:29:15;;;;;;;1.30;1.30;;;9.60;99.90;;;;;;497249;239;28019;-70
2022/05/22 02:31:16;;;;;;;1.40;1.40;;;9.50;99.90;;;;;;497238;239;27945;-70
2022/05/22 02:33:18;;;;;;;1.30;1.27;;;9.60;99.90;;;;;;497236;239;28223;-72
2022/05/22 02:35:20;;;;;;;1.50;1.40;;;9.60;99.90;;;;;;497263;239;27680;-71
2022/05/22 02:37:21;;;;;;;1.23;1.23;;;9.60;99.90;;;;;;497263;239;27800;-69
2022/05/22 02:39:22;;;;;;;1.60;1.50;;;9.60;99.90;;;;;;497232;239;28050;-71
2022/05/22 02:41:25;;;;;;;1.60;1.50;;;9.50;99.90;;;;;;497228;239;28214;-70
2022/05/22 02:43:25;;;;;;;1.43;1.30;;;9.40;99.90;;;;;;497155;239;28147;-70
2022/05/22 02:45:26;;;;;;;1.93;1.83;;;9.40;99.90;;;;;;497258;239;28463;-73
2022/05/22 02:47:27;;;;;;;1.53;1.40;;;9.30;99.90;;;;;;497278;239;28423;-69
2022/05/22 02:49:28;;;;;;;1.33;1.33;;;9.40;99.90;;;;;;497241;239;28421;-70
2022/05/22 02:51:30;;;;;;;1.50;1.40;;;9.40;99.90;;;;;;497237;239;27940;-69
2022/05/22 02:53:31;;;;;;;2.57;1.40;;;9.50;99.90;;;;;;497232;239;28020;-69
2022/05/22 02:55:32;;;;;;;1.57;1.47;;;9.40;99.90;;;;;;497299;239;27986;-70
2022/05/22 02:57:33;;;;;;;1.70;1.60;;;9.40;99.90;;;;;;497261;239;27623;-70
2022/05/22 02:59:35;;;;;;;2.70;1.53;;;9.40;99.90;;;;;;497247;239;27665;-70
2022/05/22 03:01:36;;;;;;;1.57;1.47;;;9.30;99.90;;;;;;497240;238;28040;-70
2022/05/22 03:03:37;;;;;;;2.13;1.40;;;9.30;99.90;;;;;;497263;239;27890;-70
2022/05/22 03:07:58;;;;;;;1.70;1.60;;;9.30;99.90;;;;;;497267;238;28414;-69
2022/05/22 03:09:59;;;;;;;1.70;1.60;;;9.30;99.90;;;;;;497269;239;28176;-69
2022/05/22 03:12:00;;;;;;;1.70;1.60;;;9.40;99.90;;;;;;497277;239;28697;-73
2022/05/22 03:14:02;;;;;;;1.70;1.60;;;9.40;99.90;;;;;;497310;239;28004;-70
2022/05/22 03:16:03;;;;;;;1.20;1.20;;;9.40;99.90;;;;;;497269;239;27759;-72
2022/05/22 03:18:04;;;;;;;1.57;1.47;;;9.50;99.90;;;;;;497245;238;27880;-69
2022/05/22 03:20:06;;;;;;;1.40;1.40;;;9.50;99.90;;;;;;497237;239;27920;-69
2022/05/22 03:22:07;;;;;;;1.50;1.43;;;9.50;99.90;;;;;;497212;239;28521;-71
2022/05/22 03:24:08;;;;;;;1.53;1.53;;;9.40;99.90;;;;;;497234;239;28241;-70
2022/05/22 03:26:09;;;;;;;1.70;1.60;;;9.50;99.90;;;;;;497190;239;28494;-71
2022/05/22 03:28:11;;;;;;;1.87;1.77;;;9.50;99.90;;;;;;497254;239;27944;-69
2022/05/22 03:30:12;;;;;;;1.30;1.30;;;9.40;99.90;;;;;;497233;239;28020;-69
2022/05/22 03:32:14;;;;;;;1.50;1.40;;;9.30;99.90;;;;;;497276;239;27813;-71
2022/05/22 03:34:14;;;;;;;1.53;1.43;;;9.30;99.90;;;;;;497223;239;28090;-70
2022/05/22 03:36:16;;;;;;;1.50;1.43;;;9.30;99.90;;;;;;497230;239;27671;-70
2022/05/22 03:38:17;;;;;;;1.60;1.50;;;9.20;99.90;;;;;;497246;239;28009;-69
2022/05/22 03:40:18;;;;;;;1.50;1.40;;;9.30;99.90;;;;;;497258;239;27933;-69
2022/05/22 03:42:19;;;;;;;1.50;1.50;;;9.30;99.90;;;;;;497277;239;28039;-69
2022/05/22 03:44:21;;;;;;;1.37;1.30;;;9.30;99.90;;;;;;497242;239;27802;-69
2022/05/22 03:46:22;;;;;;;1.40;1.40;;;9.40;99.90;;;;;;497242;239;27821;-70
2022/05/22 03:48:23;;;;;;;1.47;1.47;;;9.30;99.90;;;;;;497248;239;27925;-70
2022/05/22 03:50:25;;;;;;;1.60;1.50;;;9.30;99.90;;;;;;497276;239;27846;-70
2022/05/22 03:52:26;;;;;;;1.50;1.40;;;9.30;99.90;;;;;;497226;239;27974;-72
2022/05/22 03:54:27;;;;;;;1.60;1.50;;;9.30;99.90;;;;;;497259;239;27690;-70
2022/05/22 03:56:28;;;;;;;1.37;1.37;;;9.20;99.90;;;;;;497218;239;28034;-70
2022/05/22 03:58:29;;;;;;;1.30;1.30;;;9.30;99.90;;;;;;497272;238;27971;-69
2022/05/22 04:00:31;;;;;;;1.57;1.50;;;9.30;99.90;;;;;;497310;239;27829;-70
2022/05/22 04:02:33;;;;;;;1.50;1.40;;;9.40;99.90;;;;;;497269;239;27945;-71
2022/05/22 04:04:33;;;;;;;1.70;1.60;;;9.40;99.90;;;;;;497206;239;28016;-69
2022/05/22 04:06:34;;;;;;;2.57;1.60;;;9.40;99.90;;;;;;497235;239;27968;-70
2022/05/22 04:08:36;;;;;;;1.60;1.50;;;9.50;99.90;;;;;;497235;239;27987;-69
2022/05/22 04:10:37;;;;;;;1.80;1.70;;;9.60;99.90;;;;;;497287;239;28239;-70
2022/05/22 04:12:38;;;;;;;1.40;1.40;;;9.70;99.90;;;;;;497260;239;28234;-70
2022/05/22 04:14:39;;;;;;;2.40;1.77;;;9.80;99.90;;;;;;497249;239;28526;-70
2022/05/22 04:16:41;;;;;;;1.30;1.30;;;9.90;99.90;;;;;;497274;239;28507;-70
2022/05/22 04:18:42;;;;;;;1.33;1.33;;;9.90;99.90;;;;;;497251;239;28471;-70
2022/05/22 04:20:43;;;;;;;1.57;1.43;;;9.90;99.90;;;;;;497277;239;28012;-72
2022/05/22 04:25:15;;;;;;;1.53;1.43;;;9.90;99.90;;;;;;497257;239;28382;-70
2022/05/22 04:27:14;;;;;;;1.30;1.30;;;10.00;99.90;;;;;;497160;239;28371;-71
2022/05/22 04:29:16;;;;;;;1.80;1.70;;;10.10;99.90;;;;;;497271;239;27927;-70
2022/05/22 04:31:17;;;;;;;1.73;1.63;;;10.10;99.90;;;;;;497282;239;28043;-70
2022/05/22 04:33:18;;;;;;;1.57;1.47;;;10.10;99.90;;;;;;497223;239;28018;-70
2022/05/22 04:35:19;;;;;;;1.60;1.50;;;10.10;99.90;;;;;;497271;239;28068;-70
2022/05/22 04:37:21;;;;;;;1.50;1.40;;;10.10;99.90;;;;;;497284;239;27897;-73
2022/05/22 04:39:22;;;;;;;1.90;1.80;;;10.10;99.90;;;;;;497250;239;27983;-70
2022/05/22 04:41:23;;;;;;;1.83;1.73;;;10.10;99.90;;;;;;497276;239;27725;-70
2022/05/22 04:43:24;;;;;;;1.70;1.60;;;10.20;99.90;;;;;;497243;239;27786;-70
2022/05/22 04:45:26;;;;;;;6.07;1.90;;;10.30;99.90;;;;;;497264;239;27798;-71
2022/05/22 04:47:27;;;;;;;1.80;1.70;;;10.30;99.90;;;;;;497290;239;28428;-72
2022/05/22 04:49:28;;;;;;;1.87;1.77;;;10.30;99.90;;;;;;497269;239;28359;-70
2022/05/22 04:51:30;;;;;;;2.20;1.70;;;10.30;99.90;;;;;;497268;239;28320;-70
2022/05/22 04:53:31;;;;;;;1.80;1.70;;;10.30;99.90;;;;;;497298;239;28377;-69
2022/05/22 04:55:32;;;;;;;1.60;1.50;;;10.30;99.90;;;;;;497291;239;27678;-70
2022/05/22 04:57:33;;;;;;;1.60;1.50;;;10.40;99.90;;;;;;497270;239;28040;-71
2022/05/22 04:59:35;;;;;;;1.50;1.40;;;10.50;99.90;;;;;;497257;239;27919;-69
2022/05/22 05:01:36;;;;;;;1.60;1.50;;;10.50;99.90;;;;;;497269;239;27937;-71
2022/05/22 05:03:37;;;;;;;1.67;1.50;;;10.60;99.90;;;;;;497229;239;27966;-70
2022/05/22 05:05:38;;;;;;;1.90;1.73;;;10.60;99.90;;;;;;497278;239;28103;-70
2022/05/22 05:07:40;;;;;;;1.80;1.70;;;10.70;99.90;;;;;;497280;239;28437;-74
2022/05/22 05:09:41;;;;;;;1.60;1.50;;;10.70;99.90;;;;;;497265;239;28443;-70
2022/05/22 05:11:42;;;;;;;1.60;1.50;;;10.80;99.90;;;;;;497256;239;28543;-70
2022/05/22 05:13:43;;;;;;;1.80;1.70;;;10.80;99.90;;;;;;497209;239;28330;-69
2022/05/22 05:15:45;;;;;;;1.50;1.40;;;10.90;99.90;;;;;;497286;239;27911;-71
2022/05/22 05:17:46;;;;;;;1.67;1.57;;;11.10;99.90;;;;;;497255;239;28121;-72
2022/05/22 05:19:47;;;;;;;1.83;1.73;;;11.00;99.90;;;;;;497265;239;28020;-70
2022/05/22 05:21:48;;;;;;;1.50;1.50;;;11.00;99.90;;;;;;497251;239;28232;-71
2022/05/22 05:23:50;;;;;;;1.67;1.67;;;10.90;99.90;;;;;;497253;239;28214;-72
2022/05/22 05:25:51;;;;;;;1.90;1.80;;;11.00;99.90;;;;;;497284;239;28450;-70
2022/05/22 05:27:52;;;;;;;2.40;1.70;;;11.10;99.90;;;;;;497285;239;28876;-71
2022/05/22 05:29:53;;;;;;;1.90;1.80;;;11.10;99.90;;;;;;497265;239;28483;-70
2022/05/22 05:31:55;;;;;;;2.00;1.90;;;11.30;99.90;;;;;;497248;239;28482;-70
2022/05/22 05:33:56;;;;;;;1.90;1.80;;;11.50;99.90;;;;;;497217;239;28251;-70
2022/05/22 05:35:57;;;;;;;2.60;1.60;;;11.50;99.90;;;;;;497252;239;28107;-70
2022/05/22 05:37:58;;;;;;;1.63;1.53;;;11.70;99.90;;;;;;497299;239;28182;-70
2022/05/22 05:40:02;;;;;;;1.77;1.67;;;11.80;99.90;;;;;;497252;239;28177;-69
2022/05/22 05:42:03;;;;;;;2.17;2.07;;;11.90;99.90;;;;;;497235;239;28321;-70
2022/05/22 05:44:07;;;;;;;1.50;1.50;;;11.90;99.90;;;;;;497248;239;28270;-70
2022/05/22 05:46:08;;;;;;;1.77;1.67;;;12.00;99.90;;;;;;497266;239;28237;-70
2022/05/22 05:48:09;;;;;;;3.23;1.87;;;12.10;99.90;;;;;;497276;239;28147;-70
2022/05/22 05:50:11;;;;;;;1.80;1.70;;;12.10;99.90;;;;;;497279;239;28093;-73
2022/05/22 05:52:12;;;;;;;1.50;1.50;;;12.10;99.90;;;;;;497252;239;28274;-70
2022/05/22 05:54:13;;;;;;;1.60;1.60;;;12.20;99.90;;;;;;497242;239;28288;-71
2022/05/22 05:56:14;;;;;;;1.73;1.50;;;12.20;99.90;;;;;;497261;239;28331;-69
2022/05/22 05:58:16;;;;;;;1.60;1.60;;;12.30;99.90;;;;;;497267;239;28475;-70
2022/05/22 06:00:17;;;;;;;1.60;1.50;;;12.30;99.90;;;;;;497237;239;28527;-72
2022/05/22 06:02:18;;;;;;;1.80;1.70;;;12.40;99.90;;;;;;497256;239;28549;-70
2022/05/22 06:04:20;;;;;;;1.70;1.60;;;12.50;99.90;;;;;;497238;239;28966;-70
2022/05/22 06:06:21;;;;;;;1.43;1.43;;;12.60;99.90;;;;;;497230;239;28539;-69
2022/05/22 06:08:22;;;;;;;1.73;1.67;;;12.70;99.90;;;;;;497285;239;28263;-70
2022/05/22 06:10:23;;;;;;;1.70;1.60;;;12.80;99.90;;;;;;497256;239;28506;-71
2022/05/22 06:12:24;;;;;;;1.80;1.70;;;12.80;99.90;;;;;;497235;239;28812;-70
2022/05/22 06:14:26;;;;;;;1.60;1.50;;;12.90;99.90;;;;;;497158;239;29017;-70
2022/05/22 06:16:27;;;;;;;1.70;1.60;;;12.90;99.90;;;;;;497100;239;28510;-70
2022/05/22 06:18:28;;;;;;;1.67;1.57;;;13.00;99.90;;;;;;497253;239;28366;-70
2022/05/22 06:20:29;;;;;;;2.07;1.70;;;13.00;99.90;;;;;;497245;239;27990;-73
2022/05/22 06:22:32;;;;;;;1.83;1.73;;;13.00;99.90;;;;;;497270;239;28338;-70
2022/05/22 06:24:33;;;;;;;1.60;1.50;;;;;;;;;;497136;239;28254;-70
2022/05/22 06:26:34;;;;;;;1.57;1.47;;;13.00;99.90;;;;;;497287;239;27908;-70
2022/05/22 06:28:36;;;;;;;2.27;1.70;;;13.10;99.90;;;;;;497288;239;28273;-71
2022/05/22 06:30:37;;;;;;;1.47;1.47;;;13.10;99.90;;;;;;497272;239;28332;-70
2022/05/22 06:32:39;;;;;;;1.60;1.50;;;13.20;99.90;;;;;;497232;239;28261;-70
2022/05/22 06:34:44;;;;;;;2.10;1.90;;;13.30;99.90;;;;;;497230;239;28289;-70
2022/05/22 06:36:41;;;;;;;1.77;1.67;;;13.30;99.90;;;;;;496978;239;28355;-70
2022/05/22 06:41:01;;;;;;;2.03;1.93;;;13.50;99.90;;;;;;497246;238;28850;-70
2022/05/22 06:43:02;;;;;;;2.00;1.67;;;13.50;99.90;;;;;;497263;239;29411;-71
2022/05/22 06:45:06;;;;;;;1.50;1.40;;;13.60;99.90;;;;;;497248;239;28954;-70
2022/05/22 06:47:08;;;;;;;1.73;1.63;;;13.60;99.90;;;;;;497219;239;28348;-70
2022/05/22 06:49:09;;;;;;;2.87;1.90;;;13.70;99.90;;;;;;497282;239;28144;-70
2022/05/22 06:51:10;;;;;;;1.70;1.60;;;13.70;99.90;;;;;;497271;239;28206;-74
2022/05/22 06:53:11;;;;;;;2.10;1.50;;;13.80;99.90;;;;;;497248;239;28701;-70
2022/05/22 06:55:13;;;;;;;1.40;1.40;;;13.90;99.90;;;;;;497237;239;28868;-71
2022/05/22 06:57:14;;;;;;;1.70;1.60;;;13.90;99.90;;;;;;497251;239;29181;-70
2022/05/22 06:59:15;;;;;;;1.53;1.53;;;14.10;99.90;;;;;;497286;239;28332;-70
2022/05/22 07:01:16;;;;;;;1.97;1.87;;;14.20;99.90;;;;;;497258;239;28448;-72
2022/05/22 07:03:18;;;;;;;1.57;1.57;;;14.20;99.90;;;;;;497255;239;28143;-70
2022/05/22 07:05:19;;;;;;;1.50;1.50;;;14.30;99.90;;;;;;497255;239;28558;-71
2022/05/22 07:07:20;;;;;;;1.73;1.63;;;14.30;99.90;;;;;;497264;239;28273;-70
2022/05/22 07:09:22;;;;;;;1.80;1.70;;;14.30;99.90;;;;;;497275;239;28161;-70
2022/05/22 07:11:38;;;;;;;1.70;1.60;;;14.40;99.90;;;;;;497255;239;28395;-70
2022/05/22 07:13:39;;;;;;;2.40;1.90;;;14.40;99.90;;;;;;497245;239;28408;-70
2022/05/22 07:15:41;;;;;;;1.60;1.50;;;14.50;99.90;;;;;;497243;239;29232;-70
2022/05/22 07:17:42;;;;;;;1.60;1.50;;;14.60;99.90;;;;;;497268;239;29213;-70
2022/05/22 07:19:43;;;;;;;1.63;1.63;;;14.70;99.90;;;;;;497250;239;28734;-71
2022/05/22 07:21:44;;;;;;;1.70;1.60;;;14.70;99.90;;;;;;497273;239;28758;-70
2022/05/22 07:23:45;;;;;;;1.90;1.80;;;14.70;99.90;;;;;;497244;239;28567;-70
2022/05/22 07:25:47;;;;;;;1.33;1.33;;;14.80;99.90;;;;;;497281;239;28403;-70
2022/05/22 07:27:48;;;;;;;1.70;1.60;;;14.80;99.90;;;;;;497311;239;28749;-71
2022/05/22 07:29:49;;;;;;;1.60;1.50;;;14.90;99.90;;;;;;497307;239;28713;-71
2022/05/22 07:31:50;;;;;;;1.60;1.50;;;15.00;99.90;;;;;;497275;239;28919;-70
2022/05/22 07:33:52;;;;;;;1.50;1.50;;;15.10;99.90;;;;;;497265;239;28500;-70
2022/05/22 07:35:54;;;;;;;1.83;1.70;;;15.10;99.90;;;;;;497317;239;28797;-72
2022/05/22 07:37:54;;;;;;;1.60;1.50;;;15.10;99.90;;;;;;497304;239;28483;-70
2022/05/22 07:39:55;;;;;;;2.23;1.63;;;15.10;99.90;;;;;;496992;239;29276;-71
2022/05/22 07:41:57;;;;;;;1.60;1.40;;;15.20;99.90;;;;;;495921;239;29518;-70
2022/05/22 07:43:58;;;;;;;2.53;1.50;;;15.20;99.90;;;;;;495764;239;29376;-70
2022/05/22 07:45:59;;;;;;;1.50;1.50;;;15.30;99.90;;;;;;496225;239;28805;-71
2022/05/22 07:48:01;;;;;;;1.63;1.50;;;15.40;99.90;;;;;;497219;239;28914;-70
2022/05/22 07:50:17;;;;;;;1.60;1.50;;;15.60;99.90;;;;;;497264;239;28819;-71
2022/05/22 07:52:18;;;;;;;1.30;1.30;;;15.60;99.90;;;;;;497286;239;28798;-70
2022/05/22 07:54:19;;;;;;;1.37;1.37;;;15.60;99.90;;;;;;497296;239;28798;-71
2022/05/22 07:56:22;;;;;;;1.37;1.37;;;15.50;99.90;;;;;;497279;239;28772;-70
2022/05/22 07:58:22;;;;;;;1.30;1.30;;;15.60;99.90;;;;;;497196;239;28933;-72
2022/05/22 08:00:25;;;;;;;1.30;1.30;;;15.70;99.90;;;;;;497249;239;28482;-70
2022/05/22 08:02:26;;;;;;;2.10;1.40;;;15.70;99.90;;;;;;497323;239;28801;-70
2022/05/22 08:04:28;;;;;;;1.70;1.60;;;15.80;99.90;;;;;;497283;239;29677;-70
2022/05/22 08:06:29;;;;;;;1.53;1.50;;;15.80;99.90;;;;;;497330;239;29370;-70
2022/05/22 08:08:31;;;;;;;1.77;1.67;;;15.90;99.90;;;;;;497294;239;29200;-72
2022/05/22 08:10:31;;;;;;;1.70;1.60;;;16.00;99.90;;;;;;497241;239;29208;-70
2022/05/22 08:12:33;;;;;;;1.73;1.63;;;16.10;99.90;;;;;;497267;239;28783;-71
2022/05/22 08:14:34;;;;;;;2.00;1.80;;;16.20;99.90;;;;;;497294;239;29263;-74
2022/05/22 08:16:35;;;;;;;1.83;1.63;;;16.10;99.90;;;;;;497306;239;29233;-70
2022/05/22 08:18:36;;;;;;;1.50;1.40;;;16.30;99.90;;;;;;497321;239;28915;-71
2022/05/22 08:20:38;;;;;;;2.30;1.73;;;16.30;99.90;;;;;;497331;239;28776;-70
2022/05/22 08:22:40;;;;;;;3.10;1.67;;;16.40;99.90;;;;;;497264;239;28791;-71
2022/05/22 08:24:40;;;;;;;1.77;1.63;;;16.40;99.90;;;;;;497307;239;28722;-70
2022/05/22 08:26:41;;;;;;;1.70;1.60;;;16.30;99.90;;;;;;497307;239;28858;-70
2022/05/22 08:28:43;;;;;;;1.70;1.60;;;16.30;99.90;;;;;;497285;239;28816;-72
2022/05/22 08:30:44;;;;;;;1.67;1.50;;;16.30;99.90;;;;;;497158;239;28802;-70
2022/05/22 08:32:45;;;;;;;1.83;1.73;;;16.40;99.90;;;;;;497269;239;28882;-71
2022/05/22 08:34:46;;;;;;;1.70;1.60;;;16.50;99.90;;;;;;497313;239;28825;-73
2022/05/22 08:36:50;;;;;;;1.80;1.70;;;16.60;99.90;;;;;;497285;239;29209;-70
2022/05/22 08:38:49;;;;;;;2.20;1.80;;;16.70;99.90;;;;;;497179;239;29243;-71
2022/05/22 08:40:50;;;;;;;1.60;1.50;;;16.60;99.90;;;;;;497299;239;29367;-71
2022/05/22 08:42:51;;;;;;;1.90;1.80;;;16.60;99.90;;;;;;497287;239;28758;-71
2022/05/22 08:44:53;;;;;;;2.80;1.60;;;16.60;99.90;;;;;;497305;239;28780;-71
2022/05/22 08:46:54;;;;;;;1.60;1.50;;;16.70;99.90;;;;;;497251;239;28872;-71
2022/05/22 08:48:57;;;;;;;1.43;1.33;;;16.70;99.90;;;;;;497275;239;28794;-73
2022/05/22 08:50:56;;;;;;;1.40;1.30;;;16.80;99.90;;;;;;497203;239;28744;-70
2022/05/22 08:52:58;;;;;;;1.70;1.60;;;17.00;99.90;;;;;;497300;239;28710;-71
2022/05/22 08:54:59;;;;;;;1.80;1.70;;;17.20;99.90;;;;;;497170;239;28819;-72
2022/05/22 08:59:20;;;;;;;1.83;1.60;;;17.40;99.90;;;;;;497287;238;28859;-71
2022/05/22 09:01:21;;;;;;;1.90;1.60;;;17.30;99.90;;;;;;497312;239;28838;-72
2022/05/22 09:03:25;;;;;;;1.87;1.53;;;17.50;99.90;;;;;;497290;239;28834;-71
2022/05/22 09:05:24;;;;;;;1.70;1.60;;;17.70;99.90;;;;;;497146;239;28870;-71
2022/05/22 09:07:25;;;;;;;2.20;1.90;;;17.90;99.90;;;;;;497276;239;28778;-70
2022/05/22 09:09:26;;;;;;;2.70;1.90;;;17.90;99.90;;;;;;497298;239;28748;-70
2022/05/22 09:11:27;;;;;;;1.93;1.73;;;17.60;99.90;;;;;;497306;239;28831;-71
2022/05/22 09:13:29;;;;;;;2.60;1.67;;;17.40;99.90;;;;;;497273;239;29194;-70
2022/05/22 09:15:30;;;;;;;1.77;1.60;;;17.40;99.90;;;;;;497271;239;29273;-71
2022/05/22 09:17:31;;;;;;;1.40;1.30;;;17.50;99.90;;;;;;497293;239;29209;-70
2022/05/22 09:19:32;;;;;;;2.70;1.40;;;17.70;99.90;;;;;;497271;239;28669;-70
2022/05/22 09:21:34;;;;;;;2.50;1.70;;;17.70;99.90;;;;;;497293;239;28887;-72
2022/05/22 09:23:35;;;;;;;1.53;1.43;;;17.60;99.90;;;;;;497274;239;28763;-71
2022/05/22 09:25:36;;;;;;;1.70;1.60;;;17.60;99.90;;;;;;497267;239;28792;-71
2022/05/22 09:27:37;;;;;;;2.83;1.77;;;17.60;99.90;;;;;;497220;239;28794;-70
2022/05/22 09:29:39;;;;;;;2.67;1.40;;;17.60;99.90;;;;;;497288;239;28759;-72
2022/05/22 09:31:40;;;;;;;1.63;1.47;;;17.60;99.90;;;;;;497301;239;28743;-72
2022/05/22 09:33:42;;;;;;;1.70;1.60;;;17.90;99.90;;;;;;497296;239;28802;-70
2022/05/22 09:35:44;;;;;;;1.97;1.73;;;17.90;99.90;;;;;;497281;239;28787;-70
2022/05/22 09:37:45;;;;;;;1.50;1.40;;;17.80;99.90;;;;;;497282;239;28787;-71
2022/05/22 09:39:46;;;;;;;2.50;1.80;;;17.90;99.90;;;;;;497306;239;29256;-74
2022/05/22 09:41:47;;;;;;;2.17;1.70;;;17.90;99.90;;;;;;497304;239;29208;-71
2022/05/22 09:43:48;;;;;;;1.77;1.50;;;17.90;99.90;;;;;;497274;239;29363;-72
2022/05/22 09:45:50;;;;;;;2.83;1.80;;;17.90;99.90;;;;;;497286;239;28746;-71
2022/05/22 09:47:51;;;;;;;1.50;1.40;;;17.90;99.90;;;;;;497253;239;28899;-71
2022/05/22 09:49:52;;;;;;;1.53;1.43;;;18.00;99.90;;;;;;497293;239;28809;-74
2022/05/22 09:51:54;;;;;;;5.10;1.70;;;18.10;99.90;;;;;;497275;239;28781;-70
2022/05/22 09:53:55;;;;;;;2.07;1.87;;;18.30;99.90;;;;;;497271;239;28939;-72
2022/05/22 09:55:56;;;;;;;1.50;1.40;;;18.30;99.90;;;;;;497205;239;28859;-71
2022/05/22 09:57:57;;;;;;;1.53;1.43;;;18.10;99.90;;;;;;497295;239;28781;-71
2022/05/22 09:59:58;;;;;;;1.80;1.70;;;18.10;99.90;;;;;;497164;239;28819;-74
2022/05/22 10:02:00;;;;;;;1.60;1.50;;;18.20;99.90;;;;;;497274;239;28858;-71
2022/05/22 10:04:01;;;;;;;1.53;1.43;;;18.00;99.90;;;;;;497289;239;29274;-71
2022/05/22 10:06:02;;;;;;;1.87;1.50;;;18.00;99.90;;;;;;497264;239;29198;-71
2022/05/22 10:08:04;;;;;;;1.20;1.10;;;18.30;99.90;;;;;;497263;239;29221;-71
2022/05/22 10:10:06;;;;;;;2.40;1.30;;;18.40;99.90;;;;;;497289;239;28862;-71
2022/05/22 10:12:07;;;;;;;2.20;1.50;;;18.70;99.90;;;;;;497206;239;28868;-72
2022/05/22 10:14:08;;;;;;;1.60;1.50;;;18.90;99.90;;;;;;497273;239;29199;-70
2022/05/22 10:16:09;;;;;;;2.40;1.40;;;19.00;99.90;;;;;;497250;239;29289;-71
2022/05/22 10:18:11;;;;;;;1.60;1.50;;;18.90;99.90;;;;;;497268;239;31211;-70
2022/05/22 10:20:12;;;;;;;7.63;2.13;;;18.80;99.90;;;;;;497261;239;28804;-71
2022/05/22 10:22:13;;;;;;;1.80;1.70;;;18.80;99.90;;;;;;497283;239;28891;-73
2022/05/22 10:24:15;;;;;;;3.27;1.50;;;19.00;99.90;;;;;;497275;239;28775;-71
2022/05/22 10:26:16;;;;;;;1.47;1.23;;;19.10;99.90;;;;;;497251;239;28786;-71
2022/05/22 10:28:17;;;;;;;2.73;1.30;;;19.00;99.90;;;;;;497257;239;28838;-71
2022/05/22 10:30:18;;;;;;;1.57;1.47;;;18.90;99.90;;;;;;497222;239;28843;-70
2022/05/22 10:32:19;;;;;;;1.57;1.47;;;18.70;99.90;;;;;;497246;239;28854;-72
2022/05/22 10:34:21;;;;;;;1.20;1.20;;;18.60;99.90;;;;;;497247;239;28852;-71
2022/05/22 10:36:22;;;;;;;1.53;1.43;;;18.50;99.90;;;;;;497254;239;28803;-71
2022/05/22 10:38:23;;;;;;;1.10;1.10;;;18.50;99.90;;;;;;497287;239;29716;-70
2022/05/22 10:40:24;;;;;;;1.10;1.10;;;18.50;99.90;;;;;;497294;239;29220;-71
2022/05/22 10:44:45;;;;;;;1.40;1.30;;;18.70;99.90;;;;;;497212;239;29214;-70
2022/05/22 10:46:46;;;;;;;1.47;1.37;;;19.00;99.90;;;;;;497246;239;28781;-71
2022/05/22 10:48:47;;;;;;;1.53;1.43;;;19.30;99.90;;;;;;497285;239;28781;-71